Time;durP1;ratioP1;P1;durP2;ratioP2;P2;SDS_P1;SDS_P2;PMS_P1;PMS_P2;Temp;Humidity;BMP_temperature;BMP_pressure;BME280_temperature;BME280_humidity;BME280_pressure;Samples;Min_cycle;Max_cycle;Signal;HPM_P1;HPM_P2
2022/12/17 13:08:06;;;;;;;21.70;10.25;;;;;;;-1.17;75.78;100334.25;4946994;29;20043;-83
2022/12/17 13:10:34;;;;;;;26.00;11.13;;;;;;;-1.08;76.20;100350.88;4958913;29;20447;-82
2022/12/17 13:13:19;;;;;;;25.10;9.68;;;;;;;-1.25;76.27;100333.88;4956952;29;20058;-82
2022/12/17 13:16:17;;;;;;;23.20;11.05;;;;;;;-2.84;76.00;100126.44;4956584;29;20058;-81
2022/12/17 13:18:46;;;;;;;47.20;21.73;;;;;;;-1.77;76.47;100277.00;4942010;29;20388;-82
2022/12/17 13:21:16;;;;;;;16.02;8.82;;;;;;;-1.60;74.58;100325.41;4959910;29;20043;-84
2022/12/17 13:23:44;;;;;;;18.25;9.07;;;;;;;-1.66;76.46;100341.31;4955359;29;20041;-81
2022/12/17 13:26:16;;;;;;;25.88;12.68;;;;;;;-1.55;76.32;100331.63;4927197;29;20063;-82
2022/12/17 13:28:47;;;;;;;20.08;9.73;;;;;;;-1.39;76.87;100333.22;4972909;29;20051;-83
2022/12/17 13:31:19;;;;;;;;;;;;;;;-1.29;77.03;100337.09;4944169;29;20054;-82
2022/12/17 13:34:48;;;;;;;19.85;9.15;;;;;;;-1.36;76.31;100333.38;4958225;29;19918;-81
2022/12/17 13:37:14;;;;;;;24.52;11.18;;;;;;;-1.34;76.24;100321.56;4887991;29;20050;-80
2022/12/17 13:40:15;;;;;;;28.08;13.40;;;;;;;-1.38;76.52;100315.44;4923461;29;20468;-83
2022/12/17 13:42:46;;;;;;;17.27;8.35;;;;;;;-2.00;76.53;100181.47;4935982;29;20046;-82
2022/12/17 13:45:23;;;;;;;23.90;10.00;;;;;;;-1.33;76.45;100287.56;4958907;29;20042;-81
2022/12/17 13:47:59;;;;;;;20.20;8.55;;;;;;;-1.65;76.69;100215.44;4965076;29;20050;-81
2022/12/17 13:50:30;;;;;;;20.27;9.65;;;;;;;-2.08;75.95;100141.97;4928786;29;20039;-81
2022/12/17 13:53:07;;;;;;;22.17;9.80;;;;;;;-1.66;76.06;100213.72;4941214;29;20233;-84
2022/12/17 13:55:43;;;;;;;17.95;8.88;;;;;;;-2.80;76.19;100035.75;4956414;29;20050;-84
2022/12/17 13:58:29;;;;;;;19.88;9.65;;;;;;;-1.92;76.39;100164.88;4957985;29;20041;-82
2022/12/17 14:01:19;;;;;;;20.13;9.48;;;;;;;-1.44;76.83;100236.00;4909650;29;20067;-81
2022/12/17 14:03:57;;;;;;;32.67;15.32;;;;;;;-2.23;75.88;100106.44;4928732;29;20047;-83
2022/12/17 14:06:35;;;;;;;36.72;17.85;;;;;;;-1.31;76.69;100249.31;4932467;29;20063;-84
2022/12/17 14:09:02;;;;;;;25.15;10.70;;;;;;;-1.12;76.74;100271.47;4947706;29;20102;-82
2022/12/17 14:21:16;;;;;;;18.50;9.85;;;;;;;-1.42;76.31;100220.72;4956965;29;20502;-82
2022/12/17 14:23:50;;;;;;;24.85;9.93;;;;;;;-1.29;76.36;100243.50;4943743;29;20062;-82
2022/12/17 14:26:20;;;;;;;18.15;8.68;;;;;;;-1.42;75.55;100246.25;4956984;29;20102;-83
2022/12/17 14:28:49;;;;;;;23.48;9.55;;;;;;;-1.70;76.45;100212.66;4940857;29;20487;-83
2022/12/17 14:31:28;;;;;;;21.00;10.55;;;;;;;-1.14;76.42;100286.75;4959047;29;20136;-81
2022/12/17 14:34:10;;;;;;;20.38;9.45;;;;;;;-1.25;75.77;100278.59;4925808;29;20141;-81
2022/12/17 14:36:41;;;;;;;23.05;10.30;;;;;;;-1.89;76.48;100166.69;4925063;29;20051;-80
2022/12/17 14:39:26;;;;;;;22.33;10.05;;;;;;;-2.07;75.83;100142.06;4942401;29;20061;-83
2022/12/17 14:45:01;;;;;;;20.25;9.95;;;;;;;-1.43;76.63;100230.09;4947629;29;20077;-81
2022/12/17 14:47:34;;;;;;;17.05;9.07;;;;;;;-1.18;75.76;100281.41;4958713;29;20701;-84
2022/12/17 14:50:07;;;;;;;16.30;8.98;;;;;;;-1.33;75.08;100285.00;4940702;29;20103;-84
2022/12/17 14:52:52;;;;;;;17.40;8.73;;;;;;;-2.27;76.06;100146.19;4950716;29;20043;-80
2022/12/17 14:55:37;;;;;;;17.33;8.95;;;;;;;-1.60;76.08;100271.81;4946139;29;20050;-79
2022/12/17 14:58:17;;;;;;;22.08;9.20;;;;;;;-1.97;76.40;100179.94;4955347;29;20038;-82
2022/12/17 15:00:45;;;;;;;22.95;9.65;;;;;;;-1.30;76.53;100254.50;4958936;29;20042;-81
2022/12/17 15:03:26;;;;;;;23.30;10.85;;;;;;;-1.78;76.42;100156.97;4949411;29;20162;-83
2022/12/17 15:05:58;;;;;;;17.42;9.05;;;;;;;-1.77;76.17;100143.41;4958461;29;20043;-83
2022/12/17 15:08:24;;;;;;;18.42;9.20;;;;;;;-1.15;76.80;100220.25;4957824;28;20062;-84
2022/12/17 15:10:51;;;;;;;21.40;10.07;;;;;;;-1.29;76.34;100166.88;4922978;29;20515;-83
2022/12/17 15:13:17;;;;;;;22.65;9.98;;;;;;;-1.21;76.96;100168.06;4930554;29;20043;-82
2022/12/17 15:15:43;;;;;;;19.20;9.75;;;;;;;-1.29;76.72;100150.66;4935880;29;20044;-81
2022/12/17 15:18:11;;;;;;;18.67;9.52;;;;;;;-0.95;75.61;100222.00;4937444;29;20043;-85
2022/12/17 15:20:37;;;;;;;19.38;9.23;;;;;;;-1.50;75.96;100142.94;4922521;29;20067;-80
2022/12/17 15:23:04;;;;;;;23.05;10.43;;;;;;;-2.30;76.72;100008.34;4922301;29;20040;-80
2022/12/17 15:25:30;;;;;;;17.88;9.77;;;;;;;-2.19;76.83;100001.19;4907655;29;20039;-80
2022/12/17 15:27:57;;;;;;;17.60;9.02;;;;;;;-0.90;76.90;100209.47;4925226;29;20035;-83
2022/12/17 15:30:23;;;;;;;18.42;9.48;;;;;;;-1.33;76.78;100113.06;4919651;29;20043;-80
2022/12/17 15:33:12;;;;;;;;;;;;;;;;;;;;;
2022/12/17 15:36:00;;;;;;;17.73;8.85;;;;;;;-1.77;76.67;100044.78;4920828;29;20043;-84
2022/12/17 15:38:35;;;;;;;18.77;8.70;;;;;;;-0.84;76.72;100196.06;4957518;23;20057;-84
2022/12/17 15:43:56;;;;;;;18.63;8.85;;;;;;;-2.10;76.02;99996.53;5018389;28;20037;-82
2022/12/17 15:46:24;;;;;;;18.83;9.63;;;;;;;-1.37;76.29;100114.59;5034273;28;20056;-82
2022/12/17 15:52:17;;;;;;;17.75;9.32;;;;;;;-1.01;76.08;100226.88;3396587;26;20112;-83
2022/12/17 15:54:45;;;;;;;19.75;9.10;;;;;;;-1.15;75.51;100218.59;5035867;28;20051;-83
2022/12/17 15:57:25;;;;;;;16.08;8.20;;;;;;;-2.70;75.27;99964.06;5040867;28;20032;-85
2022/12/17 16:00:04;;;;;;;20.13;10.18;;;;;;;-2.24;76.48;100044.34;5038630;28;20036;-84
2022/12/17 16:02:53;;;;;;;22.77;10.80;;;;;;;-1.23;75.75;100213.13;5090533;28;20043;-83
2022/12/17 16:05:22;;;;;;;22.10;10.38;;;;;;;-1.78;76.40;100131.47;5037388;28;20067;-82
2022/12/17 16:07:51;;;;;;;21.35;11.23;;;;;;;-1.78;75.02;100145.09;5051522;28;20523;-85
2022/12/17 16:10:24;;;;;;;17.58;9.00;;;;;;;-1.71;76.24;100151.38;5034458;28;20051;-84
2022/12/17 16:13:14;;;;;;;18.60;9.38;;;;;;;-1.37;75.41;100196.28;5053895;28;20132;-83
2022/12/17 16:15:47;;;;;;;19.30;9.07;;;;;;;-2.63;77.16;99977.97;5038412;28;20144;-80
2022/12/17 16:18:37;;;;;;;22.00;9.50;;;;;;;-2.58;76.63;99973.97;5072448;28;20032;-81
2022/12/17 16:21:08;;;;;;;17.73;9.07;;;;;;;-1.70;75.97;100143.75;5060671;28;20043;-81
2022/12/17 16:24:10;;;;;;;17.98;9.45;;;;;;;-1.30;75.91;100179.56;5053903;28;20091;-79
2022/12/17 16:26:54;;;;;;;17.55;9.07;;;;;;;-2.53;76.38;99985.22;5066786;28;20036;-83
2022/12/17 16:29:50;;;;;;;18.23;8.63;;;;;;;-2.54;75.67;99982.63;5051948;28;20040;-81
2022/12/17 16:32:19;;;;;;;16.00;8.35;;;;;;;-1.98;76.71;100082.94;5055174;28;20044;-81
2022/12/17 16:35:11;;;;;;;17.40;9.45;;;;;;;-1.73;75.72;100122.34;5042168;28;20048;-82
2022/12/17 16:37:40;;;;;;;18.48;9.00;;;;;;;-1.73;76.59;100119.78;5028162;28;20048;-84
2022/12/17 16:40:07;;;;;;;19.92;9.40;;;;;;;-2.00;76.13;100056.47;5060074;28;20040;-80
2022/12/17 16:43:02;;;;;;;18.35;9.05;;;;;;;-2.33;76.11;99957.25;5054031;28;20040;-81
2022/12/17 16:45:34;;;;;;;22.95;10.70;;;;;;;-1.76;76.40;100040.53;5049183;28;20047;-83
2022/12/17 16:48:01;;;;;;;20.98;9.52;;;;;;;-2.60;76.35;99934.78;5050265;28;20103;-82
2022/12/17 16:50:29;;;;;;;17.02;8.93;;;;;;;-2.58;75.99;99979.06;5049310;28;20090;-82
2022/12/17 16:52:58;;;;;;;18.67;9.20;;;;;;;-2.21;75.06;100099.72;5049484;28;20511;-80
2022/12/17 16:55:44;;;;;;;19.88;9.60;;;;;;;-2.92;76.61;99985.97;5061994;28;20045;-81
2022/12/17 16:58:23;;;;;;;23.02;9.82;;;;;;;-2.59;76.30;99997.69;5017163;28;20091;-81
2022/12/17 17:01:11;;;;;;;20.40;10.65;;;;;;;-2.43;76.44;99981.44;5033024;28;20041;-81
2022/12/17 17:03:41;;;;;;;21.45;10.27;;;;;;;-1.10;76.82;100206.00;4996046;28;20534;-82
2022/12/17 17:06:09;;;;;;;20.50;8.93;;;;;;;-2.65;75.85;99933.69;5010666;28;20108;-80
2022/12/17 17:09:05;;;;;;;22.38;10.80;;;;;;;-1.03;76.50;100168.84;5026874;28;20041;-81
2022/12/17 17:11:35;;;;;;;19.58;9.88;;;;;;;-2.23;76.25;99956.84;5032340;28;20056;-82
2022/12/17 17:14:06;;;;;;;20.70;9.70;;;;;;;-1.96;76.77;100030.31;5050961;28;20041;-82
2022/12/17 17:16:35;;;;;;;19.40;9.55;;;;;;;-2.13;76.09;99987.06;5047902;28;20037;-83
2022/12/17 17:19:25;;;;;;;;;;;;;;;;;;;;;
2022/12/17 17:21:54;;;;;;;22.17;9.95;;;;;;;-2.28;76.02;99927.72;5039743;28;20052;-83
2022/12/17 17:28:14;;;;;;;23.90;10.55;;;;;;;-2.47;76.80;99868.28;5011588;28;20072;-81
2022/12/17 17:30:45;;;;;;;19.98;10.88;;;;;;;-1.40;76.55;100055.72;5006047;28;20048;-84
2022/12/17 17:33:16;;;;;;;20.60;9.93;;;;;;;-2.23;75.69;99925.41;5003790;28;20581;-82
2022/12/17 17:35:46;;;;;;;25.75;11.05;;;;;;;-0.97;76.29;100134.19;5020115;28;20088;-82
2022/12/17 17:38:25;;;;;;;23.65;10.98;;;;;;;-2.42;76.40;99877.00;5285105;22;21016;-81
2022/12/17 17:40:56;;;;;;;26.38;11.68;;;;;;;-1.37;76.69;100032.88;5019910;28;20057;-82
2022/12/17 17:43:30;;;;;;;24.05;11.18;;;;;;;-1.27;76.12;100054.56;5001915;28;20068;-82
2022/12/17 17:46:38;;;;;;;24.75;11.63;;;;;;;-2.00;76.34;99906.88;4987749;28;20416;-81
2022/12/17 17:53:15;;;;;;;23.10;11.05;;;;;;;-1.70;76.05;99956.63;4924861;29;20094;-80
2022/12/17 17:55:47;;;;;;;23.05;10.80;;;;;;;-1.37;76.30;100010.78;4942219;29;20074;-84
2022/12/17 17:58:21;;;;;;;28.27;11.88;;;;;;;-2.07;76.22;99917.63;4944183;29;20043;-83
2022/12/17 18:00:50;;;;;;;27.67;12.60;;;;;;;-1.85;76.08;99931.31;4994892;28;20056;-82
2022/12/17 18:03:19;;;;;;;25.80;11.93;;;;;;;-2.13;75.99;99879.09;5004746;28;20077;-80
2022/12/17 18:05:45;;;;;;;25.67;11.77;;;;;;;-1.60;75.78;99968.94;5023601;28;20061;-82
2022/12/17 18:08:15;;;;;;;38.88;17.80;;;;;;;-2.18;76.28;99894.19;5004340;28;20041;-82
2022/12/17 18:10:55;;;;;;;39.78;18.63;;;;;;;-1.08;75.44;100087.75;5039057;28;20101;-84
2022/12/17 18:16:18;;;;;;;38.63;18.10;;;;;;;-1.88;75.94;99987.28;5009207;28;20048;-82
2022/12/17 18:18:52;;;;;;;29.85;14.13;;;;;;;-1.59;75.36;100014.09;5005075;28;20415;-83
2022/12/17 18:21:22;;;;;;;26.10;12.45;;;;;;;-0.96;76.52;100123.19;5018316;28;20049;-80
2022/12/17 18:23:48;;;;;;;32.80;13.95;;;;;;;-1.11;76.11;100089.31;5037228;28;20043;-82
2022/12/17 18:26:18;;;;;;;26.35;13.60;;;;;;;-0.90;76.66;100102.16;5003623;28;20183;-84
2022/12/17 18:28:46;;;;;;;27.95;12.57;;;;;;;-1.40;76.05;100036.19;5020649;28;20112;-81
2022/12/17 18:31:26;;;;;;;26.90;12.65;;;;;;;-1.09;77.45;100074.94;5020520;28;20045;-82
2022/12/17 18:33:56;;;;;;;29.38;13.00;;;;;;;-1.79;76.48;99957.09;5019394;28;20595;-80
2022/12/17 18:36:46;;;;;;;27.55;11.90;;;;;;;-1.14;75.79;100096.84;5030475;28;20037;-81
2022/12/17 18:39:24;;;;;;;27.45;12.77;;;;;;;-2.10;76.31;99924.25;5015524;28;20062;-82
2022/12/17 18:44:39;;;;;;;37.00;14.60;;;;;;;-2.33;76.47;99873.13;5025280;28;20038;-83
2022/12/17 18:47:06;;;;;;;28.38;13.65;;;;;;;-1.83;76.92;99956.06;4993391;28;20042;-82
2022/12/17 18:49:49;;;;;;;25.75;12.95;;;;;;;-1.67;76.74;99966.97;4991190;28;20042;-82
2022/12/17 18:52:21;;;;;;;28.73;13.52;;;;;;;-1.79;76.53;99906.06;5001237;28;20057;-81
2022/12/17 18:54:55;;;;;;;25.25;11.77;;;;;;;-2.28;76.84;99823.19;4987087;28;20052;-81
2022/12/17 18:57:30;;;;;;;23.08;11.52;;;;;;;-1.73;76.42;99933.50;5007421;28;20046;-83
2022/12/17 18:59:57;;;;;;;23.13;11.88;;;;;;;-1.65;77.00;99932.13;5019027;28;20127;-81
2022/12/17 19:02:23;;;;;;;26.75;12.25;;;;;;;-1.70;77.09;99905.56;5018922;28;20048;-83
2022/12/17 19:04:52;;;;;;;29.55;12.65;;;;;;;-1.38;76.46;99955.44;5000978;28;20130;-82
2022/12/17 19:07:18;;;;;;;31.50;13.98;;;;;;;-0.95;76.51;100026.97;4985656;28;20192;-82
2022/12/17 19:09:44;;;;;;;26.88;12.50;;;;;;;-0.84;76.98;100035.94;5040268;28;20065;-80
2022/12/17 19:12:28;;;;;;;27.02;11.88;;;;;;;-0.81;76.68;100040.31;5023827;28;20128;-80
2022/12/17 19:14:56;;;;;;;29.17;12.20;;;;;;;-1.14;77.06;99989.56;5013061;28;20050;-81
2022/12/17 19:17:54;;;;;;;;;;;;;;;;;;;;;
2022/12/17 19:20:35;;;;;;;26.75;12.50;;;;;;;-1.55;76.65;99890.03;5033145;28;20054;-80
2022/12/17 19:26:30;;;;;;;28.08;12.85;;;;;;;-2.21;76.58;99802.25;5050633;28;20041;-81
2022/12/17 19:29:00;;;;;;;28.75;13.15;;;;;;;-1.14;76.94;99958.91;4992477;28;20037;-82
2022/12/17 19:31:34;;;;;;;31.85;13.25;;;;;;;-1.31;77.31;99914.81;5028675;28;20046;-80
2022/12/17 19:34:06;;;;;;;30.75;13.13;;;;;;;-1.24;76.84;99953.44;5044768;28;20041;-81
2022/12/17 19:36:36;;;;;;;30.20;13.15;;;;;;;-0.59;76.99;100054.81;5009843;28;20037;-79
2022/12/17 19:39:06;;;;;;;25.33;12.60;;;;;;;-0.72;77.14;100015.13;5027823;28;20044;-81
2022/12/17 19:41:42;;;;;;;28.25;12.82;;;;;;;-2.03;77.01;99803.84;5010534;28;20045;-81
2022/12/17 19:45:10;;;;;;;30.15;13.60;;;;;;;-0.54;77.16;100024.31;5012583;28;20045;-80
2022/12/17 19:47:52;;;;;;;;;;;;;;;-0.55;77.23;100022.63;5009940;28;20137;-80
2022/12/17 19:50:26;;;;;;;32.88;13.60;;;;;;;-1.64;76.96;99866.66;5045145;28;20000;-81
2022/12/17 19:53:07;;;;;;;28.00;12.98;;;;;;;-2.09;76.35;99773.84;4979445;28;20413;-82
2022/12/17 20:04:18;;;;;;;25.08;12.05;;;;;;;-0.58;76.46;99985.00;4851972;29;20502;-81
2022/12/17 20:11:42;;;;;;;24.40;11.13;;;;;;;-2.14;76.23;99731.97;4847398;29;20479;-79
2022/12/17 20:22:23;;;;;;;29.55;10.82;;;;;;;-2.23;76.53;99745.22;4928076;29;19941;-82
2022/12/17 20:30:37;;;;;;;22.52;10.70;;;;;;;-0.99;76.23;99931.44;4928682;29;20059;-81
2022/12/17 20:33:03;;;;;;;28.83;12.15;;;;;;;-2.19;75.91;99730.91;4839966;29;20057;-82
2022/12/17 20:35:43;;;;;;;20.85;10.82;;;;;;;-0.88;77.08;99916.53;4903365;28;20058;-80
2022/12/17 20:38:31;;;;;;;24.00;11.52;;;;;;;-1.46;75.99;99823.16;5007451;23;20140;-81
2022/12/17 20:40:57;;;;;;;23.08;10.88;;;;;;;-1.59;76.21;99809.91;5017081;28;20117;-84
2022/12/17 20:43:29;;;;;;;25.52;9.98;;;;;;;-1.09;76.06;99898.69;5001798;28;20056;-78
2022/12/17 20:46:01;;;;;;;27.20;11.88;;;;;;;-2.47;76.01;99709.41;5039441;28;20045;-80
2022/12/17 20:48:28;;;;;;;24.08;11.32;;;;;;;-2.12;76.48;99718.50;5058282;28;20037;-82
2022/12/17 20:50:55;;;;;;;25.50;11.63;;;;;;;-1.80;76.36;99764.00;5051719;28;20512;-81
2022/12/17 20:53:21;;;;;;;23.83;10.93;;;;;;;-1.05;76.68;99872.44;5007772;28;20021;-82
2022/12/17 20:59:16;;;;;;;28.52;12.55;;;;;;;-2.05;75.47;99764.66;5022584;28;20044;-82
2022/12/17 21:01:43;;;;;;;28.40;12.90;;;;;;;-1.78;76.40;99790.44;5008446;28;20053;-81
2022/12/17 21:04:16;;;;;;;22.48;10.85;;;;;;;-2.68;76.67;99613.41;5023326;28;20056;-81
2022/12/17 21:06:48;;;;;;;27.70;11.95;;;;;;;-1.68;76.90;99759.38;4988952;28;20065;-80
2022/12/17 21:09:16;;;;;;;;;;;;;;;-1.14;76.28;99837.22;5008909;28;20101;-81
2022/12/17 21:11:44;;;;;;;28.67;12.23;;;;;;;-1.68;76.74;99736.41;5008606;28;20008;-82
2022/12/17 21:14:15;;;;;;;26.98;12.75;;;;;;;-1.18;77.03;99801.25;5046151;28;20045;-81
2022/12/17 21:16:45;;;;;;;29.15;12.70;;;;;;;-1.18;76.86;99811.47;5025797;28;20040;-83
2022/12/17 21:19:19;;;;;;;29.90;12.10;;;;;;;-1.17;77.37;99800.44;5055114;28;20095;-81
2022/12/17 21:21:58;;;;;;;28.23;11.65;;;;;;;-2.02;77.28;99644.91;5056453;28;20102;-82
2022/12/17 21:24:25;;;;;;;27.85;12.68;;;;;;;-2.19;76.56;99639.13;5037530;28;20341;-79
2022/12/17 21:26:52;;;;;;;28.50;12.65;;;;;;;-1.24;76.91;99779.78;5050693;28;20037;-80
2022/12/17 21:29:18;;;;;;;24.92;11.88;;;;;;;-1.29;77.04;99776.19;5015381;28;20034;-79
2022/12/17 21:31:47;;;;;;;26.52;11.70;;;;;;;-1.65;76.48;99725.44;5026115;28;20196;-81
2022/12/17 21:34:16;;;;;;;24.05;11.27;;;;;;;-1.29;77.02;99770.19;5016227;28;20042;-79
2022/12/17 21:36:44;;;;;;;21.30;10.40;;;;;;;-1.28;77.27;99751.50;5035652;28;20504;-79
2022/12/17 21:39:13;;;;;;;25.25;11.15;;;;;;;-1.47;76.38;99726.97;5035956;28;20121;-79
2022/12/17 21:43:00;;;;;;;25.65;10.95;;;;;;;-1.39;77.89;99746.00;5052796;28;20060;-80
2022/12/17 21:44:28;;;;;;;27.38;12.43;;;;;;;-1.46;77.74;99728.72;5051216;28;20049;-80
2022/12/17 21:46:56;;;;;;;24.20;10.85;;;;;;;-1.65;77.22;99705.00;5034461;28;20055;-81
2022/12/17 21:49:27;;;;;;;25.02;11.20;;;;;;;-1.83;77.46;99670.31;5016599;28;20045;-80
2022/12/17 21:51:54;;;;;;;22.98;10.43;;;;;;;-1.62;76.42;99734.91;5009955;28;20050;-81
2022/12/17 21:54:20;;;;;;;24.33;11.43;;;;;;;-2.21;77.11;99623.78;4977640;28;20042;-81
2022/12/17 21:56:47;;;;;;;24.67;10.90;;;;;;;-2.40;77.73;99593.28;4978663;28;20070;-80
2022/12/17 21:59:15;;;;;;;23.45;10.30;;;;;;;-1.65;77.15;99735.63;5013718;28;20038;-81
2022/12/17 22:01:42;;;;;;;26.25;11.57;;;;;;;-1.68;77.84;99733.00;5031123;28;20033;-80
2022/12/17 22:04:08;;;;;;;26.05;11.38;;;;;;;-1.69;76.99;99742.31;5003015;28;20508;-78
2022/12/17 22:06:37;;;;;;;23.27;10.40;;;;;;;-2.22;77.30;99650.09;5019312;28;20034;-79
2022/12/17 22:09:05;;;;;;;27.20;11.18;;;;;;;-1.57;77.49;99733.41;5019663;28;20037;-81
2022/12/17 22:11:32;;;;;;;26.27;12.00;;;;;;;-1.70;77.40;99711.63;5042483;28;20042;-80
2022/12/17 22:14:02;;;;;;;27.90;11.35;;;;;;;-1.48;76.44;99727.78;5049196;28;20042;-78
2022/12/17 22:16:30;;;;;;;27.00;11.10;;;;;;;-1.56;77.31;99707.94;5022054;28;20045;-80
2022/12/17 22:18:59;;;;;;;26.50;12.25;;;;;;;-1.62;77.90;99692.38;5019928;28;20121;-81
2022/12/17 22:21:26;;;;;;;25.80;10.27;;;;;;;-1.40;78.21;99713.63;5026846;28;20038;-78
2022/12/17 22:23:52;;;;;;;21.15;9.45;;;;;;;-1.73;77.50;99634.97;5012216;28;20446;-81
2022/12/17 22:26:19;;;;;;;28.52;11.27;;;;;;;-1.29;77.81;99694.47;5003834;28;20128;-79
2022/12/17 22:28:47;;;;;;;21.05;10.13;;;;;;;-1.69;77.96;99613.88;5036875;28;20042;-80
2022/12/17 22:34:02;;;;;;;25.20;10.38;;;;;;;-1.35;77.34;99683.16;5019354;28;20497;-78
2022/12/17 22:36:29;;;;;;;24.50;10.85;;;;;;;-1.36;77.57;99677.19;5015466;28;20136;-81
2022/12/17 22:39:00;;;;;;;19.60;10.05;;;;;;;-1.49;77.39;99654.56;5023060;28;20045;-81
2022/12/17 22:44:12;;;;;;;21.35;10.20;;;;;;;-1.29;78.20;99645.97;5034140;28;20045;-84
2022/12/17 22:46:38;;;;;;;22.20;11.07;;;;;;;-1.32;77.58;99627.97;5033981;28;20041;-82
2022/12/17 22:49:04;;;;;;;24.75;10.88;;;;;;;-1.47;77.65;99612.09;5032837;28;20041;-80
2022/12/17 22:51:31;;;;;;;24.63;9.93;;;;;;;-1.47;77.30;99623.16;5029119;28;20056;-81
2022/12/17 22:54:01;;;;;;;20.25;9.75;;;;;;;-1.67;78.02;99587.56;5031948;28;20044;-81
2022/12/17 22:56:26;;;;;;;23.80;9.73;;;;;;;-1.55;78.31;99591.41;5014967;28;20061;-78
2022/12/17 22:58:52;;;;;;;18.70;9.45;;;;;;;-1.82;78.07;99546.19;5013586;28;20127;-82
2022/12/17 23:01:18;;;;;;;23.65;10.32;;;;;;;-1.34;77.40;99614.28;5028814;28;20046;-82
2022/12/17 23:03:44;;;;;;;21.35;10.05;;;;;;;-1.40;78.31;99606.38;5012414;28;20471;-81
2022/12/17 23:06:14;;;;;;;22.58;9.63;;;;;;;-1.46;76.99;99598.53;5013040;28;20037;-81
2022/12/17 23:08:41;;;;;;;21.48;9.70;;;;;;;-1.48;77.67;99600.16;5013480;28;20092;-79
2022/12/17 23:11:19;;;;;;;21.77;9.98;;;;;;;-1.49;78.14;99598.41;5030620;28;20107;-78
2022/12/17 23:13:48;;;;;;;20.60;8.75;;;;;;;-1.48;78.56;99593.34;5054513;28;20013;-80
2022/12/17 23:16:15;;;;;;;18.35;9.30;;;;;;;-1.47;78.03;99587.44;5040201;28;20093;-79
2022/12/17 23:18:42;;;;;;;22.17;9.55;;;;;;;-1.76;78.45;99531.09;5065361;28;20045;-82
2022/12/17 23:21:15;;;;;;;20.23;8.95;;;;;;;-1.44;77.72;99571.38;5033698;28;20045;-79
2022/12/17 23:23:41;;;;;;;19.83;9.48;;;;;;;-1.62;77.94;99530.75;5033570;28;20045;-79
2022/12/17 23:26:10;;;;;;;20.23;9.15;;;;;;;-1.65;78.25;99523.81;5033574;28;20048;-81
2022/12/17 23:28:36;;;;;;;20.15;9.05;;;;;;;-1.46;78.38;99547.47;5033301;28;20076;-80
2022/12/17 23:31:11;;;;;;;20.30;9.40;;;;;;;-1.46;77.33;99543.22;5048660;28;20060;-79
2022/12/17 23:33:37;;;;;;;19.92;8.45;;;;;;;-1.83;78.27;99496.00;5033429;28;20041;-80
2022/12/17 23:36:09;;;;;;;20.48;9.15;;;;;;;-1.60;77.62;99534.22;5015869;28;20075;-79
2022/12/17 23:38:36;;;;;;;16.98;8.38;;;;;;;-1.55;78.57;99528.47;5033398;28;20057;-78
2022/12/17 23:41:04;;;;;;;16.98;7.70;;;;;;;-1.79;77.58;99520.81;5047959;28;20052;-79
2022/12/17 23:43:31;;;;;;;16.27;6.82;;;;;;;-2.09;78.19;99483.16;5042061;28;20101;-80
2022/12/17 23:45:57;;;;;;;15.15;7.45;;;;;;;-1.80;78.69;99515.63;5029016;28;20504;-77
2022/12/17 23:48:27;;;;;;;16.90;7.78;;;;;;;-1.91;78.69;99477.84;5033080;28;20041;-81
2022/12/17 23:50:53;;;;;;;16.63;7.70;;;;;;;-1.75;77.41;99504.75;5033410;28;20136;-79
2022/12/17 23:53:19;;;;;;;15.63;6.82;;;;;;;-1.90;78.73;99463.41;5049347;28;20129;-79
2022/12/17 23:55:48;;;;;;;21.00;8.93;;;;;;;-1.70;77.67;99480.28;5033992;28;20049;-80
2022/12/17 23:58:14;;;;;;;17.00;7.68;;;;;;;-1.80;78.69;99464.59;5033994;28;20083;-80
